sensor_id;sensor_type;location;lat;lon;timestamp;pressure;altitude;pressure_sealevel;temperature;humidity
37238;BME280;23129;49.662;8.448;2022-10-16T00:01:44;100444.31;;;15.51;100.00
37238;BME280;23129;49.662;8.448;2022-10-16T00:04:13;100448.97;;;15.46;100.00
37238;BME280;23129;49.662;8.448;2022-10-16T00:06:42;100450.84;;;15.44;100.00
37238;BME280;23129;49.662;8.448;2022-10-16T00:09:10;100453.50;;;15.44;100.00
37238;BME280;23129;49.662;8.448;2022-10-16T00:11:41;100457.03;;;15.43;100.00
37238;BME280;23129;49.662;8.448;2022-10-16T00:14:12;100443.84;;;15.43;100.00
37238;BME280;23129;49.662;8.448;2022-10-16T00:16:42;100447.34;;;15.44;100.00
37238;BME280;23129;49.662;8.448;2022-10-16T00:19:11;100460.56;;;15.44;100.00
37238;BME280;23129;49.662;8.448;2022-10-16T00:21:39;100465.91;;;15.42;100.00
37238;BME280;23129;49.662;8.448;2022-10-16T00:24:09;100457.03;;;15.43;100.00
37238;BME280;23129;49.662;8.448;2022-10-16T00:26:40;100458.00;;;15.42;100.00
37238;BME280;23129;49.662;8.448;2022-10-16T00:29:09;100452.66;;;15.44;100.00
37238;BME280;23129;49.662;8.448;2022-10-16T00:31:37;100459.63;;;15.45;100.00
37238;BME280;23129;49.662;8.448;2022-10-16T00:34:06;100451.63;;;15.46;100.00
37238;BME280;23129;49.662;8.448;2022-10-16T00:36:34;100460.34;;;15.48;100.00
37238;BME280;23129;49.662;8.448;2022-10-16T00:39:03;100469.06;;;15.50;100.00
37238;BME280;23129;49.662;8.448;2022-10-16T00:41:32;100461.94;;;15.52;100.00
37238;BME280;23129;49.662;8.448;2022-10-16T00:44:41;100454.75;;;15.55;100.00
37238;BME280;23129;49.662;8.448;2022-10-16T00:46:52;100463.47;;;15.57;100.00
37238;BME280;23129;49.662;8.448;2022-10-16T00:49:21;100464.28;;;15.59;100.00
37238;BME280;23129;49.662;8.448;2022-10-16T00:51:52;100466.75;;;15.62;100.00
37238;BME280;23129;49.662;8.448;2022-10-16T00:54:24;100470.16;;;15.64;100.00
37238;BME280;23129;49.662;8.448;2022-10-16T00:56:54;100467.38;;;15.67;100.00
37238;BME280;23129;49.662;8.448;2022-10-16T00:59:28;100459.31;;;15.70;100.00
37238;BME280;23129;49.662;8.448;2022-10-16T01:02:00;100462.75;;;15.72;100.00
37238;BME280;23129;49.662;8.448;2022-10-16T01:04:33;100465.19;;;15.77;100.00
37238;BME280;23129;49.662;8.448;2022-10-16T01:07:09;100469.28;;;15.82;100.00
37238;BME280;23129;49.662;8.448;2022-10-16T01:09:51;100470.03;;;15.86;100.00
37238;BME280;23129;49.662;8.448;2022-10-16T01:12:34;100486.59;;;15.89;100.00
37238;BME280;23129;49.662;8.448;2022-10-16T01:15:17;100469.78;;;15.90;100.00
37238;BME280;23129;49.662;8.448;2022-10-16T01:17:56;100472.28;;;15.93;100.00
37238;BME280;23129;49.662;8.448;2022-10-16T01:20:29;100462.50;;;15.95;100.00
37238;BME280;23129;49.662;8.448;2022-10-16T01:23:13;100465.97;;;15.96;100.00
37238;BME280;23129;49.662;8.448;2022-10-16T01:26:04;100470.41;;;15.95;100.00
37238;BME280;23129;49.662;8.448;2022-10-16T01:28:42;100469.47;;;15.96;100.00
37238;BME280;23129;49.662;8.448;2022-10-16T01:31:16;100456.25;;;15.96;100.00
37238;BME280;23129;49.662;8.448;2022-10-16T01:33:53;100465.91;;;15.97;100.00
37238;BME280;23129;49.662;8.448;2022-10-16T01:36:27;100487.84;;;16.00;100.00
37238;BME280;23129;49.662;8.448;2022-10-16T01:39:02;100484.28;;;16.01;100.00
37238;BME280;23129;49.662;8.448;2022-10-16T01:41:34;100479.75;;;16.03;100.00
37238;BME280;23129;49.662;8.448;2022-10-16T01:44:09;100488.47;;;16.05;100.00
37238;BME280;23129;49.662;8.448;2022-10-16T01:46:41;100496.41;;;16.05;100.00
37238;BME280;23129;49.662;8.448;2022-10-16T01:49:11;100487.53;;;16.06;100.00
37238;BME280;23129;49.662;8.448;2022-10-16T01:51:41;100494.56;;;16.07;100.00
37238;BME280;23129;49.662;8.448;2022-10-16T01:54:13;100479.53;;;16.07;100.00
37238;BME280;23129;49.662;8.448;2022-10-16T01:56:43;100469.81;;;16.08;100.00
37238;BME280;23129;49.662;8.448;2022-10-16T01:59:18;100469.81;;;16.08;100.00
37238;BME280;23129;49.662;8.448;2022-10-16T02:01:52;100485.69;;;16.08;100.00
37238;BME280;23129;49.662;8.448;2022-10-16T02:04:27;100485.84;;;16.05;100.00
37238;BME280;23129;49.662;8.448;2022-10-16T02:06:56;100480.53;;;16.05;100.00
37238;BME280;23129;49.662;8.448;2022-10-16T02:09:25;100482.41;;;16.03;100.00
37238;BME280;23129;49.662;8.448;2022-10-16T02:11:55;100477.09;;;16.03;100.00
37238;BME280;23129;49.662;8.448;2022-10-16T02:14:26;100470.13;;;16.02;100.00
37238;BME280;23129;49.662;8.448;2022-10-16T02:16:55;100461.31;;;16.01;100.00
37238;BME280;23129;49.662;8.448;2022-10-16T02:19:23;100463.13;;;16.01;100.00
37238;BME280;23129;49.662;8.448;2022-10-16T02:21:55;100471.97;;;16.00;100.00
37238;BME280;23129;49.662;8.448;2022-10-16T02:24:31;100470.28;;;15.98;100.00
37238;BME280;23129;49.662;8.448;2022-10-16T02:27:05;100473.84;;;15.97;100.00
37238;BME280;23129;49.662;8.448;2022-10-16T02:29:39;100473.13;;;15.94;100.00
37238;BME280;23129;49.662;8.448;2022-10-16T02:32:13;100474.94;;;15.93;100.00
37238;BME280;23129;49.662;8.448;2022-10-16T02:34:45;100481.00;;;15.95;100.00
37238;BME280;23129;49.662;8.448;2022-10-16T02:37:14;100475.72;;;15.95;100.00
37238;BME280;23129;49.662;8.448;2022-10-16T02:39:43;100482.66;;;15.98;100.00
37238;BME280;23129;49.662;8.448;2022-10-16T02:42:12;100480.00;;;15.98;100.00
37238;BME280;23129;49.662;8.448;2022-10-16T02:44:42;100487.84;;;16.00;100.00
37238;BME280;23129;49.662;8.448;2022-10-16T02:47:10;100483.41;;;16.00;100.00
37238;BME280;23129;49.662;8.448;2022-10-16T02:49:39;100473.69;;;16.01;100.00
37238;BME280;23129;49.662;8.448;2022-10-16T02:52:08;100486.00;;;16.02;100.00
37238;BME280;23129;49.662;8.448;2022-10-16T02:54:36;100481.56;;;16.02;100.00
37238;BME280;23129;49.662;8.448;2022-10-16T02:57:04;100486.84;;;16.02;100.00
37238;BME280;23129;49.662;8.448;2022-10-16T02:59:33;100492.97;;;16.03;100.00
37238;BME280;23129;49.662;8.448;2022-10-16T03:02:02;100494.72;;;16.04;100.00
37238;BME280;23129;49.662;8.448;2022-10-16T03:04:31;100488.47;;;16.05;100.00
37238;BME280;23129;49.662;8.448;2022-10-16T03:06:59;100478.84;;;16.04;100.00
37238;BME280;23129;49.662;8.448;2022-10-16T03:09:28;100488.47;;;16.05;100.00
37238;BME280;23129;49.662;8.448;2022-10-16T03:11:56;100489.44;;;16.04;100.00
37238;BME280;23129;49.662;8.448;2022-10-16T03:14:25;100494.72;;;16.04;100.00
37238;BME280;23129;49.662;8.448;2022-10-16T03:16:54;100491.13;;;16.05;100.00
37238;BME280;23129;49.662;8.448;2022-10-16T03:19:23;100485.03;;;16.03;100.00
37238;BME280;23129;49.662;8.448;2022-10-16T03:21:52;100492.13;;;16.02;100.00
37238;BME280;23129;49.662;8.448;2022-10-16T03:24:20;100488.69;;;16.00;100.00
37238;BME280;23129;49.662;8.448;2022-10-16T03:26:49;100498.44;;;16.00;100.00
37238;BME280;23129;49.662;8.448;2022-10-16T03:29:17;100497.56;;;15.99;100.00
37238;BME280;23129;49.662;8.448;2022-10-16T03:31:46;100509.00;;;16.00;100.00
37238;BME280;23129;49.662;8.448;2022-10-16T03:34:15;100506.47;;;15.98;100.00
37238;BME280;23129;49.662;8.448;2022-10-16T03:36:45;100497.66;;;15.97;100.00
37238;BME280;23129;49.662;8.448;2022-10-16T03:39:13;100507.31;;;15.98;100.00
37238;BME280;23129;49.662;8.448;2022-10-16T03:41:41;100515.25;;;15.98;100.00
37238;BME280;23129;49.662;8.448;2022-10-16T03:44:10;100517.91;;;15.98;100.00
37238;BME280;23129;49.662;8.448;2022-10-16T03:46:38;100517.91;;;15.98;100.00
37238;BME280;23129;49.662;8.448;2022-10-16T03:49:07;100519.59;;;16.00;100.00
37238;BME280;23129;49.662;8.448;2022-10-16T03:51:36;100526.63;;;16.01;100.00
37238;BME280;23129;49.662;8.448;2022-10-16T03:54:05;100514.25;;;16.01;100.00
37238;BME280;23129;49.662;8.448;2022-10-16T03:56:34;100516.03;;;16.01;100.00
37238;BME280;23129;49.662;8.448;2022-10-16T03:59:02;100529.16;;;16.02;100.00
37238;BME280;23129;49.662;8.448;2022-10-16T04:01:31;100523.88;;;16.02;100.00
37238;BME280;23129;49.662;8.448;2022-10-16T04:03:59;100503.56;;;16.03;100.00
37238;BME280;23129;49.662;8.448;2022-10-16T04:06:27;100513.31;;;16.02;100.00
37238;BME280;23129;49.662;8.448;2022-10-16T04:08:55;100521.31;;;16.01;100.00
37238;BME280;23129;49.662;8.448;2022-10-16T04:11:25;100521.31;;;16.01;100.00
37238;BME280;23129;49.662;8.448;2022-10-16T04:13:54;100510.81;;;15.99;100.00
37238;BME280;23129;49.662;8.448;2022-10-16T04:16:23;100509.16;;;15.96;100.00
37238;BME280;23129;49.662;8.448;2022-10-16T04:18:51;100520.69;;;15.95;100.00
37238;BME280;23129;49.662;8.448;2022-10-16T04:21:20;100528.63;;;15.95;100.00
37238;BME280;23129;49.662;8.448;2022-10-16T04:23:49;100521.63;;;15.94;100.00
37238;BME280;23129;49.662;8.448;2022-10-16T04:26:17;100513.75;;;15.93;100.00
37238;BME280;23129;49.662;8.448;2022-10-16T04:28:47;100511.97;;;15.93;100.00
37238;BME280;23129;49.662;8.448;2022-10-16T04:31:15;100528.69;;;15.94;100.00
37238;BME280;23129;49.662;8.448;2022-10-16T04:33:44;100534.06;;;15.92;100.00
37238;BME280;23129;49.662;8.448;2022-10-16T04:36:13;100544.56;;;15.94;100.00
37238;BME280;23129;49.662;8.448;2022-10-16T04:38:41;100546.34;;;15.93;100.00
37238;BME280;23129;49.662;8.448;2022-10-16T04:41:10;100542.78;;;15.94;100.00
37238;BME280;23129;49.662;8.448;2022-10-16T04:43:38;100536.63;;;15.94;100.00
37238;BME280;23129;49.662;8.448;2022-10-16T04:46:08;100528.78;;;15.92;100.00
37238;BME280;23129;49.662;8.448;2022-10-16T04:48:37;100522.63;;;15.92;100.00
37238;BME280;23129;49.662;8.448;2022-10-16T04:51:05;100520.03;;;15.90;100.00
37238;BME280;23129;49.662;8.448;2022-10-16T04:53:33;100520.19;;;15.87;100.00
37238;BME280;23129;49.662;8.448;2022-10-16T04:56:02;100522.06;;;15.85;100.00
37238;BME280;23129;49.662;8.448;2022-10-16T04:58:31;100526.63;;;15.82;100.00
37238;BME280;23129;49.662;8.448;2022-10-16T05:01:00;100514.41;;;15.79;100.00
37238;BME280;23129;49.662;8.448;2022-10-16T05:03:29;100507.50;;;15.77;100.00
37238;BME280;23129;49.662;8.448;2022-10-16T05:05:58;100513.81;;;15.74;100.00
37238;BME280;23129;49.662;8.448;2022-10-16T05:08:26;100520.88;;;15.73;100.00
37238;BME280;23129;49.662;8.448;2022-10-16T05:10:55;100523.53;;;15.73;100.00
37238;BME280;23129;49.662;8.448;2022-10-16T05:13:23;100508.66;;;15.71;100.00
37238;BME280;23129;49.662;8.448;2022-10-16T05:15:52;100513.00;;;15.72;100.00
37238;BME280;23129;49.662;8.448;2022-10-16T05:18:20;100523.59;;;15.72;100.00
37238;BME280;23129;49.662;8.448;2022-10-16T05:20:50;100525.28;;;15.73;100.00
37238;BME280;23129;49.662;8.448;2022-10-16T05:23:18;100523.53;;;15.73;100.00
37238;BME280;23129;49.662;8.448;2022-10-16T05:25:53;100513.00;;;15.72;100.00
37238;BME280;23129;49.662;8.448;2022-10-16T05:28:22;100516.44;;;15.74;100.00
37238;BME280;23129;49.662;8.448;2022-10-16T05:30:51;100522.66;;;15.73;100.00
37238;BME280;23129;49.662;8.448;2022-10-16T05:33:23;100536.81;;;15.72;100.00
37238;BME280;23129;49.662;8.448;2022-10-16T05:35:53;100538.50;;;15.73;100.00
37238;BME280;23129;49.662;8.448;2022-10-16T05:38:21;100548.19;;;15.74;100.00
37238;BME280;23129;49.662;8.448;2022-10-16T05:40:53;100546.38;;;15.74;100.00
37238;BME280;23129;49.662;8.448;2022-10-16T05:43:22;100553.38;;;15.75;100.00
37238;BME280;23129;49.662;8.448;2022-10-16T05:45:57;100555.19;;;15.75;100.00
37238;BME280;23129;49.662;8.448;2022-10-16T05:48:26;100551.59;;;15.76;100.00
37238;BME280;23129;49.662;8.448;2022-10-16T05:51:00;100557.81;;;15.75;100.00
37238;BME280;23129;49.662;8.448;2022-10-16T05:53:31;100555.25;;;15.73;100.00
37238;BME280;23129;49.662;8.448;2022-10-16T05:56:00;100549.97;;;15.73;100.00
37238;BME280;23129;49.662;8.448;2022-10-16T05:58:31;100562.41;;;15.71;100.00
37238;BME280;23129;49.662;8.448;2022-10-16T06:01:03;100557.97;;;15.72;100.00
37238;BME280;23129;49.662;8.448;2022-10-16T06:03:33;100571.03;;;15.75;100.00
37238;BME280;23129;49.662;8.448;2022-10-16T06:06:09;100584.25;;;15.75;100.00
37238;BME280;23129;49.662;8.448;2022-10-16T06:08:39;100588.63;;;15.76;100.00
37238;BME280;23129;49.662;8.448;2022-10-16T06:11:10;100600.94;;;15.77;100.00
37238;BME280;23129;49.662;8.448;2022-10-16T06:13:39;100605.28;;;15.78;100.00
37238;BME280;23129;49.662;8.448;2022-10-16T06:16:10;100602.50;;;15.81;100.00
37238;BME280;23129;49.662;8.448;2022-10-16T06:18:38;100599.84;;;15.81;100.00
37238;BME280;23129;49.662;8.448;2022-10-16T06:21:10;100589.34;;;15.80;100.00
37238;BME280;23129;49.662;8.448;2022-10-16T06:23:39;100587.56;;;15.80;100.00
37238;BME280;23129;49.662;8.448;2022-10-16T06:26:08;100589.25;;;15.81;100.00
37238;BME280;23129;49.662;8.448;2022-10-16T06:28:38;100583.19;;;15.79;100.00
37238;BME280;23129;49.662;8.448;2022-10-16T06:31:09;100596.41;;;15.79;100.00
37238;BME280;23129;49.662;8.448;2022-10-16T06:33:38;100603.44;;;15.80;100.00
37238;BME280;23129;49.662;8.448;2022-10-16T06:36:10;100587.56;;;15.80;100.00
37238;BME280;23129;49.662;8.448;2022-10-16T06:38:39;100606.06;;;15.80;100.00
37238;BME280;23129;49.662;8.448;2022-10-16T06:41:11;100600.78;;;15.80;100.00
37238;BME280;23129;49.662;8.448;2022-10-16T06:43:40;100606.00;;;15.82;100.00
37238;BME280;23129;49.662;8.448;2022-10-16T06:46:11;100609.56;;;15.81;100.00
37238;BME280;23129;49.662;8.448;2022-10-16T06:48:40;100612.22;;;15.81;100.00
37238;BME280;23129;49.662;8.448;2022-10-16T06:51:11;100620.00;;;15.84;100.00
37238;BME280;23129;49.662;8.448;2022-10-16T06:53:43;100622.56;;;15.85;100.00
37238;BME280;23129;49.662;8.448;2022-10-16T06:56:31;100614.47;;;15.88;100.00
37238;BME280;23129;49.662;8.448;2022-10-16T06:59:00;100621.44;;;15.91;100.00
37238;BME280;23129;49.662;8.448;2022-10-16T07:01:29;100624.00;;;15.92;100.00
37238;BME280;23129;49.662;8.448;2022-10-16T07:03:58;100623.88;;;15.95;100.00
37238;BME280;23129;49.662;8.448;2022-10-16T07:06:32;100626.41;;;15.97;100.00
37238;BME280;23129;49.662;8.448;2022-10-16T07:09:03;100629.94;;;15.97;100.00
37238;BME280;23129;49.662;8.448;2022-10-16T07:11:32;100630.72;;;16.00;100.00
37238;BME280;23129;49.662;8.448;2022-10-16T07:14:01;100636.00;;;16.00;100.00
37238;BME280;23129;49.662;8.448;2022-10-16T07:16:32;100638.50;;;16.03;100.00
37238;BME280;23129;49.662;8.448;2022-10-16T07:19:02;100641.94;;;16.05;100.00
37238;BME280;23129;49.662;8.448;2022-10-16T07:21:34;100643.59;;;16.07;100.00
37238;BME280;23129;49.662;8.448;2022-10-16T07:24:05;100655.81;;;16.10;100.00
37238;BME280;23129;49.662;8.448;2022-10-16T07:26:36;100653.94;;;16.12;100.00
37238;BME280;23129;49.662;8.448;2022-10-16T07:29:08;100655.59;;;16.14;100.00
37238;BME280;23129;49.662;8.448;2022-10-16T07:31:40;100654.59;;;16.17;100.00
37238;BME280;23129;49.662;8.448;2022-10-16T07:34:08;100654.44;;;16.20;100.00
37238;BME280;23129;49.662;8.448;2022-10-16T07:36:38;100666.69;;;16.23;100.00
37238;BME280;23129;49.662;8.448;2022-10-16T07:39:12;100673.63;;;16.25;100.00
37238;BME280;23129;49.662;8.448;2022-10-16T07:41:40;100673.47;;;16.28;100.00
37238;BME280;23129;49.662;8.448;2022-10-16T07:44:08;100672.47;;;16.31;100.00
37238;BME280;23129;49.662;8.448;2022-10-16T07:46:37;100669.81;;;16.31;100.00
37238;BME280;23129;49.662;8.448;2022-10-16T07:49:06;100682.19;;;16.30;100.00
37238;BME280;23129;49.662;8.448;2022-10-16T07:51:34;100680.47;;;16.29;100.00
37238;BME280;23129;49.662;8.448;2022-10-16T07:54:03;100678.63;;;16.31;100.00
37238;BME280;23129;49.662;8.448;2022-10-16T07:56:32;100690.91;;;16.32;100.00
37238;BME280;23129;49.662;8.448;2022-10-16T07:59:02;100694.34;;;16.34;100.00
37238;BME280;23129;49.662;8.448;2022-10-16T08:01:31;100696.75;;;16.39;100.00
37238;BME280;23129;49.662;8.448;2022-10-16T08:03:59;100697.66;;;16.39;100.00
37238;BME280;23129;49.662;8.448;2022-10-16T08:06:28;100699.25;;;16.42;100.00
37238;BME280;23129;49.662;8.448;2022-10-16T08:08:56;100702.78;;;16.42;100.00
37238;BME280;23129;49.662;8.448;2022-10-16T08:11:28;100715.09;;;16.43;100.00
37238;BME280;23129;49.662;8.448;2022-10-16T08:13:56;100714.31;;;16.41;100.00
37238;BME280;23129;49.662;8.448;2022-10-16T08:16:25;100715.25;;;16.40;100.00
37238;BME280;23129;49.662;8.448;2022-10-16T08:18:53;100719.84;;;16.37;100.00
37238;BME280;23129;49.662;8.448;2022-10-16T08:21:22;100716.47;;;16.33;100.00
37238;BME280;23129;49.662;8.448;2022-10-16T08:23:52;100720.19;;;16.29;100.00
37238;BME280;23129;49.662;8.448;2022-10-16T08:26:25;100731.06;;;16.23;100.00
37238;BME280;23129;49.662;8.448;2022-10-16T08:28:55;100750.59;;;16.20;100.00
37238;BME280;23129;49.662;8.448;2022-10-16T08:31:24;100778.03;;;16.18;100.00
37238;BME280;23129;49.662;8.448;2022-10-16T08:33:54;100798.44;;;16.16;100.00
37238;BME280;23129;49.662;8.448;2022-10-16T08:36:22;100789.72;;;16.14;100.00
37238;BME280;23129;49.662;8.448;2022-10-16T08:38:51;100796.84;;;16.12;100.00
37238;BME280;23129;49.662;8.448;2022-10-16T08:42:04;100772.47;;;16.05;100.00
37238;BME280;23129;49.662;8.448;2022-10-16T08:45:26;100763.00;;;16.00;100.00
37238;BME280;23129;49.662;8.448;2022-10-16T08:48:11;100766.59;;;15.98;100.00
37238;BME280;23129;49.662;8.448;2022-10-16T08:50:44;100769.25;;;15.98;100.00
37238;BME280;23129;49.662;8.448;2022-10-16T08:53:19;100787.69;;;16.00;100.00
37238;BME280;23129;49.662;8.448;2022-10-16T08:55:51;100794.47;;;16.06;100.00
37238;BME280;23129;49.662;8.448;2022-10-16T08:58:22;100782.75;;;16.11;100.00
37238;BME280;23129;49.662;8.448;2022-10-16T09:00:55;100781.63;;;16.17;100.00
37238;BME280;23129;49.662;8.448;2022-10-16T09:06:38;100782.00;;;16.28;100.00
37238;BME280;23129;49.662;8.448;2022-10-16T09:09:31;100791.50;;;16.32;100.00
37238;BME280;23129;49.662;8.448;2022-10-16T09:12:09;100806.19;;;16.39;100.00
37238;BME280;23129;49.662;8.448;2022-10-16T09:14:54;100804.31;;;16.41;100.00
37238;BME280;23129;49.662;8.448;2022-10-16T09:17:48;100801.53;;;16.44;100.00
37238;BME280;23129;49.662;8.448;2022-10-16T09:20:26;100795.88;;;16.52;100.00
37238;BME280;23129;49.662;8.448;2022-10-16T09:23:13;100800.91;;;16.58;100.00
37238;BME280;23129;49.662;8.448;2022-10-16T09:25:48;100804.91;;;16.67;100.00
37238;BME280;23129;49.662;8.448;2022-10-16T09:28:18;100812.34;;;16.78;100.00
37238;BME280;23129;49.662;8.448;2022-10-16T09:30:47;100812.69;;;16.89;100.00
37238;BME280;23129;49.662;8.448;2022-10-16T09:33:21;100808.69;;;16.99;100.00
37238;BME280;23129;49.662;8.448;2022-10-16T09:35:52;100798.66;;;17.06;100.00
37238;BME280;23129;49.662;8.448;2022-10-16T09:38:25;100798.19;;;17.15;100.00
37238;BME280;23129;49.662;8.448;2022-10-16T09:40:56;100809.88;;;17.28;100.00
37238;BME280;23129;49.662;8.448;2022-10-16T09:43:34;100814.09;;;17.50;100.00
37238;BME280;23129;49.662;8.448;2022-10-16T09:46:08;100821.59;;;17.76;100.00
37238;BME280;23129;49.662;8.448;2022-10-16T09:48:44;100816.91;;;18.32;100.00
37238;BME280;23129;49.662;8.448;2022-10-16T09:51:20;100818.34;;;19.03;100.00
37238;BME280;23129;49.662;8.448;2022-10-16T09:53:56;100811.31;;;19.48;100.00
37238;BME280;23129;49.662;8.448;2022-10-16T09:56:27;100803.88;;;19.83;100.00
37238;BME280;23129;49.662;8.448;2022-10-16T09:58:58;100800.00;;;20.32;100.00
37238;BME280;23129;49.662;8.448;2022-10-16T10:01:35;100804.06;;;20.66;100.00
37238;BME280;23129;49.662;8.448;2022-10-16T10:04:07;100807.13;;;21.01;100.00
37238;BME280;23129;49.662;8.448;2022-10-16T10:06:40;100804.00;;;21.34;100.00
37238;BME280;23129;49.662;8.448;2022-10-16T10:09:19;100816.50;;;21.61;100.00
37238;BME280;23129;49.662;8.448;2022-10-16T10:11:53;100814.88;;;21.71;100.00
37238;BME280;23129;49.662;8.448;2022-10-16T10:14:26;100811.91;;;21.88;100.00
37238;BME280;23129;49.662;8.448;2022-10-16T10:17:13;100814.81;;;22.11;100.00
37238;BME280;23129;49.662;8.448;2022-10-16T10:19:49;100823.34;;;22.42;100.00
37238;BME280;23129;49.662;8.448;2022-10-16T10:22:25;100818.53;;;22.84;100.00
37238;BME280;23129;49.662;8.448;2022-10-16T10:25:22;100819.06;;;23.37;100.00
37238;BME280;23129;49.662;8.448;2022-10-16T10:28:20;100816.28;;;23.74;100.00
37238;BME280;23129;49.662;8.448;2022-10-16T10:30:59;100822.88;;;23.92;100.00
37238;BME280;23129;49.662;8.448;2022-10-16T10:33:37;100819.00;;;24.07;100.00
37238;BME280;23129;49.662;8.448;2022-10-16T10:36:20;100818.53;;;24.25;100.00
37238;BME280;23129;49.662;8.448;2022-10-16T10:38:53;100825.09;;;24.32;100.00
37238;BME280;23129;49.662;8.448;2022-10-16T10:42:05;100831.50;;;24.42;100.00
37238;BME280;23129;49.662;8.448;2022-10-16T10:48:12;100816.06;;;24.89;100.00
37238;BME280;23129;49.662;8.448;2022-10-16T10:50:48;100818.06;;;25.08;100.00
37238;BME280;23129;49.662;8.448;2022-10-16T10:53:33;100817.88;;;25.32;100.00
37238;BME280;23129;49.662;8.448;2022-10-16T10:56:16;100822.75;;;25.59;100.00
37238;BME280;23129;49.662;8.448;2022-10-16T10:59:14;100808.00;;;25.95;100.00
37238;BME280;23129;49.662;8.448;2022-10-16T11:01:50;100803.09;;;26.31;100.00
37238;BME280;23129;49.662;8.448;2022-10-16T11:07:41;100798.84;;;26.59;100.00
37238;BME280;23129;49.662;8.448;2022-10-16T11:10:15;100801.25;;;26.72;100.00
37238;BME280;23129;49.662;8.448;2022-10-16T11:12:49;100803.22;;;26.70;100.00
37238;BME280;23129;49.662;8.448;2022-10-16T11:15:25;100801.56;;;26.89;100.00
37238;BME280;23129;49.662;8.448;2022-10-16T11:18:00;100805.16;;;27.18;100.00
37238;BME280;23129;49.662;8.448;2022-10-16T11:20:34;100807.16;;;27.36;100.00
37238;BME280;23129;49.662;8.448;2022-10-16T11:23:11;100803.00;;;27.51;100.00
37238;BME280;23129;49.662;8.448;2022-10-16T11:25:45;100804.69;;;27.52;100.00
37238;BME280;23129;49.662;8.448;2022-10-16T11:28:19;100801.88;;;27.53;100.00
37238;BME280;23129;49.662;8.448;2022-10-16T11:31:00;100803.72;;;27.53;100.00
37238;BME280;23129;49.662;8.448;2022-10-16T11:33:34;100805.00;;;27.59;99.99
37238;BME280;23129;49.662;8.448;2022-10-16T11:36:12;100804.41;;;27.55;100.00
37238;BME280;23129;49.662;8.448;2022-10-16T11:38:49;100796.88;;;27.68;100.00
37238;BME280;23129;49.662;8.448;2022-10-16T11:41:28;100796.50;;;27.44;97.78
37238;BME280;23129;49.662;8.448;2022-10-16T11:44:14;100798.78;;;27.19;100.00
37238;BME280;23129;49.662;8.448;2022-10-16T11:46:51;100808.09;;;26.96;98.97
37238;BME280;23129;49.662;8.448;2022-10-16T11:49:42;100816.78;;;26.59;98.33
37238;BME280;23129;49.662;8.448;2022-10-16T11:52:19;100816.13;;;26.36;100.00
37238;BME280;23129;49.662;8.448;2022-10-16T11:54:54;100807.47;;;26.02;99.52
37238;BME280;23129;49.662;8.448;2022-10-16T11:57:31;100800.41;;;25.59;99.66
37238;BME280;23129;49.662;8.448;2022-10-16T12:00:05;100798.34;;;25.30;100.00
37238;BME280;23129;49.662;8.448;2022-10-16T12:02:50;100789.41;;;24.97;100.00
37238;BME280;23129;49.662;8.448;2022-10-16T12:05:30;100799.75;;;24.58;100.00
37238;BME280;23129;49.662;8.448;2022-10-16T12:08:09;100804.13;;;24.26;100.00
37238;BME280;23129;49.662;8.448;2022-10-16T12:10:40;100797.09;;;24.02;100.00
37238;BME280;23129;49.662;8.448;2022-10-16T12:13:31;100795.59;;;23.87;100.00
37238;BME280;23129;49.662;8.448;2022-10-16T12:16:22;100800.38;;;23.95;100.00
37238;BME280;23129;49.662;8.448;2022-10-16T12:19:13;100804.88;;;23.94;100.00
37238;BME280;23129;49.662;8.448;2022-10-16T12:21:43;100799.38;;;23.84;100.00
37238;BME280;23129;49.662;8.448;2022-10-16T12:24:27;100797.28;;;23.77;100.00
37238;BME280;23129;49.662;8.448;2022-10-16T12:26:58;100796.56;;;23.75;100.00
37238;BME280;23129;49.662;8.448;2022-10-16T12:29:35;100787.56;;;23.76;100.00
37238;BME280;23129;49.662;8.448;2022-10-16T12:32:05;100788.50;;;23.75;100.00
37238;BME280;23129;49.662;8.448;2022-10-16T12:35:18;100792.66;;;23.90;100.00
37238;BME280;23129;49.662;8.448;2022-10-16T12:37:47;100784.75;;;24.11;100.00
37238;BME280;23129;49.662;8.448;2022-10-16T12:40:27;100784.91;;;24.21;100.00
37238;BME280;23129;49.662;8.448;2022-10-16T12:42:56;100787.94;;;24.05;100.00
37238;BME280;23129;49.662;8.448;2022-10-16T12:45:29;100794.75;;;23.86;100.00
37238;BME280;23129;49.662;8.448;2022-10-16T12:48:00;100796.06;;;23.69;100.00
37238;BME280;23129;49.662;8.448;2022-10-16T12:50:34;100785.41;;;23.57;100.00
37238;BME280;23129;49.662;8.448;2022-10-16T12:53:17;100791.38;;;23.49;100.00
37238;BME280;23129;49.662;8.448;2022-10-16T12:55:57;100782.84;;;23.55;100.00
37238;BME280;23129;49.662;8.448;2022-10-16T12:58:59;100798.50;;;23.84;100.00
37238;BME280;23129;49.662;8.448;2022-10-16T13:01:42;100790.38;;;24.30;100.00
37238;BME280;23129;49.662;8.448;2022-10-16T13:04:47;100781.72;;;24.60;100.00
37238;BME280;23129;49.662;8.448;2022-10-16T13:07:43;100769.78;;;24.53;100.00
37238;BME280;23129;49.662;8.448;2022-10-16T13:10:23;100784.16;;;24.30;100.00
37238;BME280;23129;49.662;8.448;2022-10-16T13:13:22;100779.31;;;24.12;100.00
37238;BME280;23129;49.662;8.448;2022-10-16T13:16:09;100788.81;;;23.94;100.00
37238;BME280;23129;49.662;8.448;2022-10-16T13:18:54;100797.84;;;23.69;100.00
37238;BME280;23129;49.662;8.448;2022-10-16T13:21:36;100801.78;;;23.41;100.00
37238;BME280;23129;49.662;8.448;2022-10-16T13:24:20;100805.25;;;23.19;100.00